sensor_id;sensor_type;location;lat;lon;timestamp;temperature;humidity
67163;DHT22;54092;53.088;8.850;2023-06-22T00:01:47;17.80;99.90
67163;DHT22;54092;53.088;8.850;2023-06-22T00:04:12;17.80;99.90
67163;DHT22;54092;53.088;8.850;2023-06-22T00:06:38;17.80;99.90
67163;DHT22;54092;53.088;8.850;2023-06-22T00:09:03;17.80;99.90
67163;DHT22;54092;53.088;8.850;2023-06-22T00:11:29;17.80;99.90
67163;DHT22;54092;53.088;8.850;2023-06-22T00:13:56;17.80;99.90
67163;DHT22;54092;53.088;8.850;2023-06-22T00:16:22;17.90;99.90
67163;DHT22;54092;53.088;8.850;2023-06-22T00:18:48;17.90;99.90
67163;DHT22;54092;53.088;8.850;2023-06-22T00:21:14;17.80;99.90
67163;DHT22;54092;53.088;8.850;2023-06-22T00:23:39;17.80;99.90
67163;DHT22;54092;53.088;8.850;2023-06-22T00:26:07;17.80;99.90
67163;DHT22;54092;53.088;8.850;2023-06-22T00:28:32;17.80;99.90
67163;DHT22;54092;53.088;8.850;2023-06-22T00:30:58;17.70;99.90
67163;DHT22;54092;53.088;8.850;2023-06-22T00:33:23;17.70;99.90
67163;DHT22;54092;53.088;8.850;2023-06-22T00:35:49;17.70;99.90
67163;DHT22;54092;53.088;8.850;2023-06-22T00:38:18;17.70;99.90
67163;DHT22;54092;53.088;8.850;2023-06-22T00:40:43;17.70;99.90
67163;DHT22;54092;53.088;8.850;2023-06-22T00:43:09;17.70;99.90
67163;DHT22;54092;53.088;8.850;2023-06-22T00:45:34;17.70;99.90
67163;DHT22;54092;53.088;8.850;2023-06-22T00:48:00;17.60;99.90
67163;DHT22;54092;53.088;8.850;2023-06-22T00:50:28;17.60;99.90
67163;DHT22;54092;53.088;8.850;2023-06-22T00:53:03;17.60;99.90
67163;DHT22;54092;53.088;8.850;2023-06-22T00:55:34;17.60;99.90
67163;DHT22;54092;53.088;8.850;2023-06-22T00:58:03;17.60;99.90
67163;DHT22;54092;53.088;8.850;2023-06-22T01:00:31;17.60;99.90
67163;DHT22;54092;53.088;8.850;2023-06-22T01:02:58;17.60;99.90
67163;DHT22;54092;53.088;8.850;2023-06-22T01:05:23;17.60;99.90
67163;DHT22;54092;53.088;8.850;2023-06-22T01:11:47;17.60;99.90
67163;DHT22;54092;53.088;8.850;2023-06-22T01:16:25;17.50;99.90
67163;DHT22;54092;53.088;8.850;2023-06-22T01:18:54;17.40;99.90
67163;DHT22;54092;53.088;8.850;2023-06-22T01:21:22;17.40;99.90
67163;DHT22;54092;53.088;8.850;2023-06-22T01:26:43;17.40;99.90
67163;DHT22;54092;53.088;8.850;2023-06-22T01:29:12;17.40;99.90
67163;DHT22;54092;53.088;8.850;2023-06-22T01:31:40;17.30;99.90
67163;DHT22;54092;53.088;8.850;2023-06-22T01:34:08;17.30;99.90
67163;DHT22;54092;53.088;8.850;2023-06-22T01:36:35;17.30;99.90
67163;DHT22;54092;53.088;8.850;2023-06-22T01:39:02;17.30;99.90
67163;DHT22;54092;53.088;8.850;2023-06-22T01:41:32;17.30;99.90
67163;DHT22;54092;53.088;8.850;2023-06-22T01:43:57;17.30;99.90
67163;DHT22;54092;53.088;8.850;2023-06-22T01:46:24;17.20;99.90
67163;DHT22;54092;53.088;8.850;2023-06-22T01:48:50;17.20;99.90
67163;DHT22;54092;53.088;8.850;2023-06-22T01:51:16;17.20;99.90
67163;DHT22;54092;53.088;8.850;2023-06-22T01:53:42;17.20;99.90
67163;DHT22;54092;53.088;8.850;2023-06-22T01:56:08;17.20;99.90
67163;DHT22;54092;53.088;8.850;2023-06-22T01:58:37;17.10;99.90
67163;DHT22;54092;53.088;8.850;2023-06-22T02:01:10;17.00;99.90
67163;DHT22;54092;53.088;8.850;2023-06-22T02:03:47;17.00;99.90
67163;DHT22;54092;53.088;8.850;2023-06-22T02:06:18;17.00;99.90
67163;DHT22;54092;53.088;8.850;2023-06-22T02:08:49;17.00;99.90
67163;DHT22;54092;53.088;8.850;2023-06-22T02:11:18;17.00;99.90
67163;DHT22;54092;53.088;8.850;2023-06-22T02:13:45;17.00;99.90
67163;DHT22;54092;53.088;8.850;2023-06-22T02:16:11;17.00;99.90
67163;DHT22;54092;53.088;8.850;2023-06-22T02:18:37;17.00;99.90
67163;DHT22;54092;53.088;8.850;2023-06-22T02:21:03;17.00;99.90
67163;DHT22;54092;53.088;8.850;2023-06-22T02:23:28;17.00;99.90
67163;DHT22;54092;53.088;8.850;2023-06-22T02:25:54;16.80;99.90
67163;DHT22;54092;53.088;8.850;2023-06-22T02:28:20;16.80;99.90
67163;DHT22;54092;53.088;8.850;2023-06-22T02:30:45;16.80;99.90
67163;DHT22;54092;53.088;8.850;2023-06-22T02:33:11;16.80;99.90
67163;DHT22;54092;53.088;8.850;2023-06-22T02:35:37;16.80;99.90
67163;DHT22;54092;53.088;8.850;2023-06-22T02:38:03;16.80;99.90
67163;DHT22;54092;53.088;8.850;2023-06-22T02:40:29;16.70;99.90
67163;DHT22;54092;53.088;8.850;2023-06-22T02:42:55;16.70;99.90
67163;DHT22;54092;53.088;8.850;2023-06-22T02:45:23;16.70;99.90
67163;DHT22;54092;53.088;8.850;2023-06-22T02:47:48;16.60;99.90
67163;DHT22;54092;53.088;8.850;2023-06-22T02:50:14;16.70;99.90
67163;DHT22;54092;53.088;8.850;2023-06-22T02:52:40;16.70;99.90
67163;DHT22;54092;53.088;8.850;2023-06-22T02:55:06;16.60;99.90
67163;DHT22;54092;53.088;8.850;2023-06-22T02:57:32;16.60;99.90
67163;DHT22;54092;53.088;8.850;2023-06-22T02:59:58;16.60;99.90
67163;DHT22;54092;53.088;8.850;2023-06-22T03:02:24;16.60;99.90
67163;DHT22;54092;53.088;8.850;2023-06-22T03:04:49;16.70;99.90
67163;DHT22;54092;53.088;8.850;2023-06-22T03:07:15;16.70;99.90
67163;DHT22;54092;53.088;8.850;2023-06-22T03:09:42;16.70;99.90
67163;DHT22;54092;53.088;8.850;2023-06-22T03:12:08;16.70;99.90
67163;DHT22;54092;53.088;8.850;2023-06-22T03:14:34;16.70;99.90
67163;DHT22;54092;53.088;8.850;2023-06-22T03:16:59;16.70;99.90
67163;DHT22;54092;53.088;8.850;2023-06-22T03:19:28;16.70;99.90
67163;DHT22;54092;53.088;8.850;2023-06-22T03:21:55;16.70;99.90
67163;DHT22;54092;53.088;8.850;2023-06-22T03:24:20;16.70;99.90
67163;DHT22;54092;53.088;8.850;2023-06-22T03:26:46;16.70;99.90
67163;DHT22;54092;53.088;8.850;2023-06-22T03:29:12;16.70;99.90
67163;DHT22;54092;53.088;8.850;2023-06-22T03:31:37;16.70;99.90
67163;DHT22;54092;53.088;8.850;2023-06-22T03:34:03;16.80;99.90
67163;DHT22;54092;53.088;8.850;2023-06-22T03:36:28;16.70;99.90
67163;DHT22;54092;53.088;8.850;2023-06-22T03:38:55;16.80;99.90
67163;DHT22;54092;53.088;8.850;2023-06-22T03:41:20;16.70;99.90
67163;DHT22;54092;53.088;8.850;2023-06-22T03:43:46;16.80;99.90
67163;DHT22;54092;53.088;8.850;2023-06-22T03:46:11;16.80;99.90
67163;DHT22;54092;53.088;8.850;2023-06-22T03:48:37;16.80;99.90
67163;DHT22;54092;53.088;8.850;2023-06-22T03:51:03;16.80;99.90
67163;DHT22;54092;53.088;8.850;2023-06-22T03:53:29;16.80;99.90
67163;DHT22;54092;53.088;8.850;2023-06-22T03:55:55;16.90;99.90
67163;DHT22;54092;53.088;8.850;2023-06-22T03:58:21;16.90;99.90
67163;DHT22;54092;53.088;8.850;2023-06-22T04:00:48;17.00;99.90
67163;DHT22;54092;53.088;8.850;2023-06-22T04:03:14;16.90;99.90
67163;DHT22;54092;53.088;8.850;2023-06-22T04:05:40;16.90;99.90
67163;DHT22;54092;53.088;8.850;2023-06-22T04:08:06;17.00;99.90
67163;DHT22;54092;53.088;8.850;2023-06-22T04:10:32;17.00;99.90
67163;DHT22;54092;53.088;8.850;2023-06-22T04:12:57;17.00;99.90
67163;DHT22;54092;53.088;8.850;2023-06-22T04:15:23;17.00;99.90
67163;DHT22;54092;53.088;8.850;2023-06-22T04:17:48;17.00;99.90
67163;DHT22;54092;53.088;8.850;2023-06-22T04:20:14;17.00;99.90
67163;DHT22;54092;53.088;8.850;2023-06-22T04:22:39;17.00;99.90
67163;DHT22;54092;53.088;8.850;2023-06-22T04:25:06;17.10;99.90
67163;DHT22;54092;53.088;8.850;2023-06-22T04:27:33;17.10;99.90
67163;DHT22;54092;53.088;8.850;2023-06-22T04:30:03;17.20;99.90
67163;DHT22;54092;53.088;8.850;2023-06-22T04:32:28;17.20;99.90
67163;DHT22;54092;53.088;8.850;2023-06-22T04:34:54;17.30;99.90
67163;DHT22;54092;53.088;8.850;2023-06-22T04:37:19;17.30;99.90
67163;DHT22;54092;53.088;8.850;2023-06-22T04:39:48;17.30;99.90
67163;DHT22;54092;53.088;8.850;2023-06-22T04:42:14;17.40;99.90
67163;DHT22;54092;53.088;8.850;2023-06-22T04:44:40;17.40;99.90
67163;DHT22;54092;53.088;8.850;2023-06-22T04:47:07;17.40;99.90
67163;DHT22;54092;53.088;8.850;2023-06-22T04:49:34;17.40;99.90
67163;DHT22;54092;53.088;8.850;2023-06-22T04:52:06;17.50;99.90
67163;DHT22;54092;53.088;8.850;2023-06-22T04:54:32;17.60;99.90
67163;DHT22;54092;53.088;8.850;2023-06-22T04:57:01;17.60;99.90
67163;DHT22;54092;53.088;8.850;2023-06-22T04:59:28;17.70;99.90
67163;DHT22;54092;53.088;8.850;2023-06-22T05:01:59;17.80;99.90
67163;DHT22;54092;53.088;8.850;2023-06-22T05:04:26;17.90;99.90
67163;DHT22;54092;53.088;8.850;2023-06-22T05:06:53;17.90;99.90
67163;DHT22;54092;53.088;8.850;2023-06-22T05:09:19;18.00;99.90
67163;DHT22;54092;53.088;8.850;2023-06-22T05:11:45;18.00;99.90
67163;DHT22;54092;53.088;8.850;2023-06-22T05:14:11;18.00;99.90
67163;DHT22;54092;53.088;8.850;2023-06-22T05:16:37;18.10;99.90
67163;DHT22;54092;53.088;8.850;2023-06-22T05:19:03;18.20;99.90
67163;DHT22;54092;53.088;8.850;2023-06-22T05:21:29;18.30;99.90
67163;DHT22;54092;53.088;8.850;2023-06-22T05:23:56;18.30;99.90
67163;DHT22;54092;53.088;8.850;2023-06-22T05:26:26;18.40;99.90
67163;DHT22;54092;53.088;8.850;2023-06-22T05:28:52;18.50;99.90
67163;DHT22;54092;53.088;8.850;2023-06-22T05:31:18;18.60;99.90
67163;DHT22;54092;53.088;8.850;2023-06-22T05:33:45;18.80;99.90
67163;DHT22;54092;53.088;8.850;2023-06-22T05:36:11;18.90;99.90
67163;DHT22;54092;53.088;8.850;2023-06-22T05:38:38;19.10;99.90
67163;DHT22;54092;53.088;8.850;2023-06-22T05:41:04;19.20;99.90
67163;DHT22;54092;53.088;8.850;2023-06-22T05:43:29;19.40;99.90
67163;DHT22;54092;53.088;8.850;2023-06-22T05:45:55;19.60;99.90
67163;DHT22;54092;53.088;8.850;2023-06-22T05:48:21;19.70;99.90
67163;DHT22;54092;53.088;8.850;2023-06-22T05:50:46;19.90;99.90
67163;DHT22;54092;53.088;8.850;2023-06-22T05:53:12;20.00;99.90
67163;DHT22;54092;53.088;8.850;2023-06-22T05:55:37;20.20;99.90
67163;DHT22;54092;53.088;8.850;2023-06-22T05:58:03;20.30;99.90
67163;DHT22;54092;53.088;8.850;2023-06-22T06:00:29;20.50;99.90
67163;DHT22;54092;53.088;8.850;2023-06-22T06:02:54;20.70;99.90
67163;DHT22;54092;53.088;8.850;2023-06-22T06:05:20;20.80;99.90
67163;DHT22;54092;53.088;8.850;2023-06-22T06:07:46;20.90;99.90
67163;DHT22;54092;53.088;8.850;2023-06-22T06:10:12;20.90;99.90
67163;DHT22;54092;53.088;8.850;2023-06-22T06:12:37;21.10;99.90
67163;DHT22;54092;53.088;8.850;2023-06-22T06:15:04;21.10;99.90
67163;DHT22;54092;53.088;8.850;2023-06-22T06:17:30;21.10;99.90
67163;DHT22;54092;53.088;8.850;2023-06-22T06:19:55;21.20;99.90
67163;DHT22;54092;53.088;8.850;2023-06-22T06:22:21;21.10;99.90
67163;DHT22;54092;53.088;8.850;2023-06-22T06:24:49;21.10;99.90
67163;DHT22;54092;53.088;8.850;2023-06-22T06:27:15;21.00;99.90
67163;DHT22;54092;53.088;8.850;2023-06-22T06:29:40;21.00;99.90
67163;DHT22;54092;53.088;8.850;2023-06-22T06:32:06;21.00;99.90
67163;DHT22;54092;53.088;8.850;2023-06-22T06:34:32;21.00;99.90
67163;DHT22;54092;53.088;8.850;2023-06-22T06:36:57;21.10;99.90
67163;DHT22;54092;53.088;8.850;2023-06-22T06:39:23;21.30;99.90
67163;DHT22;54092;53.088;8.850;2023-06-22T06:41:48;21.40;99.90
67163;DHT22;54092;53.088;8.850;2023-06-22T06:44:14;21.50;99.90
67163;DHT22;54092;53.088;8.850;2023-06-22T06:46:39;21.40;99.90
67163;DHT22;54092;53.088;8.850;2023-06-22T06:49:05;21.40;99.90
67163;DHT22;54092;53.088;8.850;2023-06-22T06:51:30;21.60;99.90
67163;DHT22;54092;53.088;8.850;2023-06-22T06:53:56;21.60;99.90
67163;DHT22;54092;53.088;8.850;2023-06-22T06:56:21;21.70;99.90
67163;DHT22;54092;53.088;8.850;2023-06-22T06:58:49;21.80;99.90
67163;DHT22;54092;53.088;8.850;2023-06-22T07:01:14;21.90;99.90
67163;DHT22;54092;53.088;8.850;2023-06-22T07:03:40;22.10;99.90
67163;DHT22;54092;53.088;8.850;2023-06-22T07:06:05;22.20;99.90
67163;DHT22;54092;53.088;8.850;2023-06-22T07:08:31;22.20;99.90
67163;DHT22;54092;53.088;8.850;2023-06-22T07:10:56;22.30;99.90
67163;DHT22;54092;53.088;8.850;2023-06-22T07:13:22;22.40;99.90
67163;DHT22;54092;53.088;8.850;2023-06-22T07:15:47;22.50;99.90
67163;DHT22;54092;53.088;8.850;2023-06-22T07:18:13;22.70;99.90
67163;DHT22;54092;53.088;8.850;2023-06-22T07:20:38;22.80;99.90
67163;DHT22;54092;53.088;8.850;2023-06-22T07:23:07;22.90;99.90
67163;DHT22;54092;53.088;8.850;2023-06-22T07:25:32;23.00;99.90
67163;DHT22;54092;53.088;8.850;2023-06-22T07:28:02;23.10;99.90
67163;DHT22;54092;53.088;8.850;2023-06-22T07:30:29;23.10;99.90
67163;DHT22;54092;53.088;8.850;2023-06-22T07:32:55;23.20;99.90
67163;DHT22;54092;53.088;8.850;2023-06-22T07:35:20;23.30;99.90
67163;DHT22;54092;53.088;8.850;2023-06-22T07:37:46;23.30;99.90
67163;DHT22;54092;53.088;8.850;2023-06-22T07:40:12;23.40;99.90
67163;DHT22;54092;53.088;8.850;2023-06-22T07:42:38;23.60;99.90
67163;DHT22;54092;53.088;8.850;2023-06-22T07:45:04;23.70;99.90
67163;DHT22;54092;53.088;8.850;2023-06-22T07:47:30;23.80;99.90
67163;DHT22;54092;53.088;8.850;2023-06-22T07:49:59;23.90;99.90
67163;DHT22;54092;53.088;8.850;2023-06-22T07:52:27;23.90;99.90
67163;DHT22;54092;53.088;8.850;2023-06-22T07:54:52;24.00;99.90
67163;DHT22;54092;53.088;8.850;2023-06-22T07:57:18;24.00;99.90
67163;DHT22;54092;53.088;8.850;2023-06-22T07:59:44;24.00;99.90
67163;DHT22;54092;53.088;8.850;2023-06-22T08:02:10;24.20;99.90
67163;DHT22;54092;53.088;8.850;2023-06-22T08:04:35;24.30;99.90
67163;DHT22;54092;53.088;8.850;2023-06-22T08:07:01;24.40;99.90
67163;DHT22;54092;53.088;8.850;2023-06-22T08:09:32;24.50;99.90
67163;DHT22;54092;53.088;8.850;2023-06-22T08:11:58;24.60;99.90
67163;DHT22;54092;53.088;8.850;2023-06-22T08:14:26;24.60;99.90
67163;DHT22;54092;53.088;8.850;2023-06-22T08:16:51;24.70;99.90
67163;DHT22;54092;53.088;8.850;2023-06-22T08:19:17;24.80;99.90
67163;DHT22;54092;53.088;8.850;2023-06-22T08:21:43;25.00;99.90
67163;DHT22;54092;53.088;8.850;2023-06-22T08:24:08;25.10;99.90
67163;DHT22;54092;53.088;8.850;2023-06-22T08:26:34;25.20;99.90
67163;DHT22;54092;53.088;8.850;2023-06-22T08:29:04;25.30;99.90
67163;DHT22;54092;53.088;8.850;2023-06-22T08:31:31;25.30;99.90
67163;DHT22;54092;53.088;8.850;2023-06-22T08:33:58;25.20;99.90
67163;DHT22;54092;53.088;8.850;2023-06-22T08:36:24;25.30;99.90
67163;DHT22;54092;53.088;8.850;2023-06-22T08:38:50;25.60;99.90
67163;DHT22;54092;53.088;8.850;2023-06-22T08:41:17;25.80;99.90
67163;DHT22;54092;53.088;8.850;2023-06-22T08:43:44;26.00;99.90
67163;DHT22;54092;53.088;8.850;2023-06-22T08:46:12;25.90;99.90
67163;DHT22;54092;53.088;8.850;2023-06-22T08:48:37;26.00;99.90
67163;DHT22;54092;53.088;8.850;2023-06-22T08:51:04;26.20;99.90
67163;DHT22;54092;53.088;8.850;2023-06-22T08:53:29;26.40;99.90
67163;DHT22;54092;53.088;8.850;2023-06-22T08:55:55;26.60;99.90
67163;DHT22;54092;53.088;8.850;2023-06-22T08:58:20;26.80;99.90
67163;DHT22;54092;53.088;8.850;2023-06-22T09:00:47;27.30;99.90
67163;DHT22;54092;53.088;8.850;2023-06-22T09:03:12;27.70;99.90
67163;DHT22;54092;53.088;8.850;2023-06-22T09:05:38;28.00;99.90
67163;DHT22;54092;53.088;8.850;2023-06-22T09:08:04;28.30;99.90
67163;DHT22;54092;53.088;8.850;2023-06-22T09:10:29;28.10;99.90
67163;DHT22;54092;53.088;8.850;2023-06-22T09:12:55;27.80;99.90
67163;DHT22;54092;53.088;8.850;2023-06-22T09:15:20;27.90;99.90
67163;DHT22;54092;53.088;8.850;2023-06-22T09:17:46;28.30;99.90
67163;DHT22;54092;53.088;8.850;2023-06-22T09:20:11;28.90;99.90
67163;DHT22;54092;53.088;8.850;2023-06-22T09:22:37;29.30;99.90
67163;DHT22;54092;53.088;8.850;2023-06-22T09:25:03;29.90;99.90
67163;DHT22;54092;53.088;8.850;2023-06-22T09:27:29;30.10;99.90
67163;DHT22;54092;53.088;8.850;2023-06-22T09:29:55;29.90;99.90
67163;DHT22;54092;53.088;8.850;2023-06-22T09:32:21;30.00;99.90
67163;DHT22;54092;53.088;8.850;2023-06-22T09:34:46;30.20;99.90
67163;DHT22;54092;53.088;8.850;2023-06-22T09:37:12;30.70;99.90
67163;DHT22;54092;53.088;8.850;2023-06-22T09:39:37;31.10;99.90
67163;DHT22;54092;53.088;8.850;2023-06-22T09:42:03;31.80;99.90
67163;DHT22;54092;53.088;8.850;2023-06-22T09:44:30;32.10;99.90
67163;DHT22;54092;53.088;8.850;2023-06-22T09:46:56;32.50;99.90
67163;DHT22;54092;53.088;8.850;2023-06-22T09:49:22;32.20;99.90
67163;DHT22;54092;53.088;8.850;2023-06-22T09:51:47;31.00;99.90
67163;DHT22;54092;53.088;8.850;2023-06-22T09:54:15;29.70;99.90
67163;DHT22;54092;53.088;8.850;2023-06-22T09:56:40;28.70;99.90
67163;DHT22;54092;53.088;8.850;2023-06-22T09:59:06;28.70;99.90
67163;DHT22;54092;53.088;8.850;2023-06-22T10:01:31;29.70;99.90
67163;DHT22;54092;53.088;8.850;2023-06-22T10:03:57;30.60;99.90
67163;DHT22;54092;53.088;8.850;2023-06-22T10:06:22;30.70;99.90
67163;DHT22;54092;53.088;8.850;2023-06-22T10:08:50;31.30;99.90
67163;DHT22;54092;53.088;8.850;2023-06-22T10:11:16;31.70;99.90
67163;DHT22;54092;53.088;8.850;2023-06-22T10:13:42;32.10;99.90
67163;DHT22;54092;53.088;8.850;2023-06-22T10:16:07;32.70;99.90
67163;DHT22;54092;53.088;8.850;2023-06-22T10:18:33;33.40;99.90
67163;DHT22;54092;53.088;8.850;2023-06-22T10:20:59;32.60;99.90
67163;DHT22;54092;53.088;8.850;2023-06-22T10:23:25;32.00;99.90
67163;DHT22;54092;53.088;8.850;2023-06-22T10:25:50;31.40;99.90
67163;DHT22;54092;53.088;8.850;2023-06-22T10:28:16;31.40;99.90
67163;DHT22;54092;53.088;8.850;2023-06-22T10:30:42;31.40;99.90
67163;DHT22;54092;53.088;8.850;2023-06-22T10:33:08;31.70;99.90
67163;DHT22;54092;53.088;8.850;2023-06-22T10:35:34;32.20;99.90
67163;DHT22;54092;53.088;8.850;2023-06-22T10:38:00;31.80;99.90
67163;DHT22;54092;53.088;8.850;2023-06-22T10:40:26;32.00;99.90
67163;DHT22;54092;53.088;8.850;2023-06-22T10:42:51;31.90;99.90
67163;DHT22;54092;53.088;8.850;2023-06-22T10:45:16;32.30;99.90
67163;DHT22;54092;53.088;8.850;2023-06-22T10:47:42;32.10;99.90
67163;DHT22;54092;53.088;8.850;2023-06-22T10:50:08;31.80;99.90
67163;DHT22;54092;53.088;8.850;2023-06-22T10:52:33;31.70;99.90
67163;DHT22;54092;53.088;8.850;2023-06-22T10:54:59;31.70;99.90
67163;DHT22;54092;53.088;8.850;2023-06-22T10:57:25;31.10;99.90
67163;DHT22;54092;53.088;8.850;2023-06-22T10:59:50;30.50;99.90
67163;DHT22;54092;53.088;8.850;2023-06-22T11:02:15;30.10;99.90
67163;DHT22;54092;53.088;8.850;2023-06-22T11:04:41;29.90;99.90
67163;DHT22;54092;53.088;8.850;2023-06-22T11:07:06;30.00;99.90
67163;DHT22;54092;53.088;8.850;2023-06-22T11:09:32;29.90;99.90
67163;DHT22;54092;53.088;8.850;2023-06-22T11:11:57;30.00;99.90
67163;DHT22;54092;53.088;8.850;2023-06-22T11:14:24;30.10;99.90
67163;DHT22;54092;53.088;8.850;2023-06-22T11:16:50;30.30;99.90
67163;DHT22;54092;53.088;8.850;2023-06-22T11:19:16;31.20;99.90
67163;DHT22;54092;53.088;8.850;2023-06-22T11:21:41;31.80;99.90
67163;DHT22;54092;53.088;8.850;2023-06-22T11:24:07;31.80;99.90
67163;DHT22;54092;53.088;8.850;2023-06-22T11:26:32;32.00;99.90
67163;DHT22;54092;53.088;8.850;2023-06-22T11:28:58;32.50;99.90
67163;DHT22;54092;53.088;8.850;2023-06-22T11:31:24;32.80;99.90
67163;DHT22;54092;53.088;8.850;2023-06-22T11:33:50;32.60;99.90
67163;DHT22;54092;53.088;8.850;2023-06-22T11:36:15;32.30;99.90
67163;DHT22;54092;53.088;8.850;2023-06-22T11:38:42;32.60;99.90
67163;DHT22;54092;53.088;8.850;2023-06-22T11:41:08;33.00;99.90
67163;DHT22;54092;53.088;8.850;2023-06-22T11:43:33;33.20;99.90
67163;DHT22;54092;53.088;8.850;2023-06-22T11:46:02;32.90;99.90
67163;DHT22;54092;53.088;8.850;2023-06-22T11:48:28;32.50;99.90
67163;DHT22;54092;53.088;8.850;2023-06-22T11:50:53;33.00;99.90
67163;DHT22;54092;53.088;8.850;2023-06-22T11:53:21;33.70;99.90
67163;DHT22;54092;53.088;8.850;2023-06-22T11:55:47;34.00;99.90
67163;DHT22;54092;53.088;8.850;2023-06-22T11:58:12;34.10;99.90
67163;DHT22;54092;53.088;8.850;2023-06-22T12:00:38;34.00;99.90
67163;DHT22;54092;53.088;8.850;2023-06-22T12:03:04;34.20;99.90
67163;DHT22;54092;53.088;8.850;2023-06-22T12:05:29;34.60;99.90
67163;DHT22;54092;53.088;8.850;2023-06-22T12:07:55;35.10;99.90
67163;DHT22;54092;53.088;8.850;2023-06-22T12:10:22;35.30;99.90
67163;DHT22;54092;53.088;8.850;2023-06-22T12:12:47;34.50;99.90
67163;DHT22;54092;53.088;8.850;2023-06-22T12:15:13;33.90;99.90
67163;DHT22;54092;53.088;8.850;2023-06-22T12:17:40;33.20;99.90
67163;DHT22;54092;53.088;8.850;2023-06-22T12:20:06;32.40;99.90
67163;DHT22;54092;53.088;8.850;2023-06-22T12:22:34;31.80;99.90
67163;DHT22;54092;53.088;8.850;2023-06-22T12:25:00;31.20;99.90
67163;DHT22;54092;53.088;8.850;2023-06-22T12:27:26;31.10;99.90
67163;DHT22;54092;53.088;8.850;2023-06-22T12:29:51;31.70;99.90
67163;DHT22;54092;53.088;8.850;2023-06-22T12:32:17;31.90;99.90
67163;DHT22;54092;53.088;8.850;2023-06-22T12:34:43;31.70;99.90
67163;DHT22;54092;53.088;8.850;2023-06-22T12:37:09;31.40;99.90
67163;DHT22;54092;53.088;8.850;2023-06-22T12:39:35;31.00;99.90
67163;DHT22;54092;53.088;8.850;2023-06-22T12:42:01;30.60;99.90
67163;DHT22;54092;53.088;8.850;2023-06-22T12:44:26;30.30;99.90
67163;DHT22;54092;53.088;8.850;2023-06-22T12:46:52;30.10;99.90
67163;DHT22;54092;53.088;8.850;2023-06-22T12:49:18;30.00;99.90
67163;DHT22;54092;53.088;8.850;2023-06-22T12:51:44;29.80;99.90
67163;DHT22;54092;53.088;8.850;2023-06-22T12:54:10;29.50;99.90
67163;DHT22;54092;53.088;8.850;2023-06-22T12:56:37;29.30;99.90
67163;DHT22;54092;53.088;8.850;2023-06-22T12:59:04;28.90;99.90
67163;DHT22;54092;53.088;8.850;2023-06-22T13:01:30;28.70;99.90
67163;DHT22;54092;53.088;8.850;2023-06-22T13:03:56;28.60;99.90
67163;DHT22;54092;53.088;8.850;2023-06-22T13:06:22;28.60;99.90
67163;DHT22;54092;53.088;8.850;2023-06-22T13:08:47;28.60;99.90
67163;DHT22;54092;53.088;8.850;2023-06-22T13:11:13;28.60;99.90
67163;DHT22;54092;53.088;8.850;2023-06-22T13:13:39;28.70;99.90
67163;DHT22;54092;53.088;8.850;2023-06-22T13:16:04;28.60;99.90
67163;DHT22;54092;53.088;8.850;2023-06-22T13:18:30;28.40;99.90
67163;DHT22;54092;53.088;8.850;2023-06-22T13:20:55;28.30;99.90
67163;DHT22;54092;53.088;8.850;2023-06-22T13:23:21;28.30;99.90
67163;DHT22;54092;53.088;8.850;2023-06-22T13:25:47;28.30;99.90
67163;DHT22;54092;53.088;8.850;2023-06-22T13:28:12;28.40;99.90
67163;DHT22;54092;53.088;8.850;2023-06-22T13:30:40;28.40;99.90
67163;DHT22;54092;53.088;8.850;2023-06-22T13:33:05;28.40;99.90
67163;DHT22;54092;53.088;8.850;2023-06-22T13:35:31;28.20;99.90
67163;DHT22;54092;53.088;8.850;2023-06-22T13:37:56;28.10;99.90
67163;DHT22;54092;53.088;8.850;2023-06-22T13:40:22;28.10;99.90
67163;DHT22;54092;53.088;8.850;2023-06-22T13:42:48;28.00;99.90
67163;DHT22;54092;53.088;8.850;2023-06-22T13:45:13;28.00;99.90
67163;DHT22;54092;53.088;8.850;2023-06-22T13:47:39;27.90;99.90
67163;DHT22;54092;53.088;8.850;2023-06-22T13:50:05;27.80;99.90
67163;DHT22;54092;53.088;8.850;2023-06-22T13:52:31;27.80;99.90
67163;DHT22;54092;53.088;8.850;2023-06-22T13:54:56;27.80;99.90
67163;DHT22;54092;53.088;8.850;2023-06-22T13:57:22;27.80;99.90
67163;DHT22;54092;53.088;8.850;2023-06-22T13:59:47;27.60;99.90
67163;DHT22;54092;53.088;8.850;2023-06-22T14:02:13;27.60;99.90
67163;DHT22;54092;53.088;8.850;2023-06-22T14:04:39;27.50;99.90
67163;DHT22;54092;53.088;8.850;2023-06-22T14:07:04;27.40;99.90
67163;DHT22;54092;53.088;8.850;2023-06-22T14:09:30;27.40;99.90
67163;DHT22;54092;53.088;8.850;2023-06-22T14:11:55;27.30;99.90
67163;DHT22;54092;53.088;8.850;2023-06-22T14:14:21;27.30;99.90
67163;DHT22;54092;53.088;8.850;2023-06-22T14:16:47;27.30;99.90
67163;DHT22;54092;53.088;8.850;2023-06-22T14:19:16;27.20;99.90
67163;DHT22;54092;53.088;8.850;2023-06-22T14:21:42;27.20;99.90
67163;DHT22;54092;53.088;8.850;2023-06-22T14:24:07;27.20;99.90
67163;DHT22;54092;53.088;8.850;2023-06-22T14:26:33;27.10;99.90
67163;DHT22;54092;53.088;8.850;2023-06-22T14:28:58;27.00;99.90
67163;DHT22;54092;53.088;8.850;2023-06-22T14:31:24;26.90;99.90
67163;DHT22;54092;53.088;8.850;2023-06-22T14:33:50;26.80;99.90
67163;DHT22;54092;53.088;8.850;2023-06-22T14:36:16;26.80;99.90
67163;DHT22;54092;53.088;8.850;2023-06-22T14:38:43;26.70;99.90
67163;DHT22;54092;53.088;8.850;2023-06-22T14:41:08;26.60;99.90
67163;DHT22;54092;53.088;8.850;2023-06-22T14:43:34;26.50;99.90
67163;DHT22;54092;53.088;8.850;2023-06-22T14:46:00;26.40;99.90
67163;DHT22;54092;53.088;8.850;2023-06-22T14:48:25;26.40;99.90
67163;DHT22;54092;53.088;8.850;2023-06-22T14:50:51;26.40;99.90
67163;DHT22;54092;53.088;8.850;2023-06-22T14:53:17;26.30;99.90
67163;DHT22;54092;53.088;8.850;2023-06-22T14:55:42;26.40;99.90
67163;DHT22;54092;53.088;8.850;2023-06-22T14:58:09;26.30;99.90
67163;DHT22;54092;53.088;8.850;2023-06-22T15:00:34;26.20;99.90
67163;DHT22;54092;53.088;8.850;2023-06-22T15:03:00;26.20;99.90
67163;DHT22;54092;53.088;8.850;2023-06-22T15:05:25;26.20;99.90
67163;DHT22;54092;53.088;8.850;2023-06-22T15:07:51;26.20;99.90
67163;DHT22;54092;53.088;8.850;2023-06-22T15:10:17;26.10;99.90
67163;DHT22;54092;53.088;8.850;2023-06-22T15:12:42;26.10;99.90
67163;DHT22;54092;53.088;8.850;2023-06-22T15:15:08;25.90;99.90
67163;DHT22;54092;53.088;8.850;2023-06-22T15:17:34;25.80;99.90
67163;DHT22;54092;53.088;8.850;2023-06-22T15:19:59;25.70;99.90
67163;DHT22;54092;53.088;8.850;2023-06-22T15:22:25;25.40;99.90
67163;DHT22;54092;53.088;8.850;2023-06-22T15:24:51;25.20;99.90
67163;DHT22;54092;53.088;8.850;2023-06-22T15:27:19;25.10;99.90
67163;DHT22;54092;53.088;8.850;2023-06-22T15:29:45;24.90;99.90
67163;DHT22;54092;53.088;8.850;2023-06-22T15:32:11;24.80;99.90